Terminal Aerodrome Forecast
Issued by NWS

Current Version | Previous Version | Text Only | Print | Product List | Glossary On
Versions: 1 2 3 4 5 6 7 8 9 10 11 12
000
FTUS45 KRIW 061738
TAFPNA
TAF
KPNA 061738Z 0618/0718 08010G20KT P6SM VCTS SCT020CB BKN060
      TEMPO 0618/0620 VRB20G30KT 2SM TSRAGS OVC018CB
     FM070200 09008KT 6SM -RA SCT020 BKN035
     FM070800 30006KT 4SM -RA SCT010 BKN020
      AMD LTD TO CLD VIS AND WIND=

USA.gov is the U.S. government's official web portal to all federal, state and local government web resources and services.